Time;durP1;ratioP1;P1;durP2;ratioP2;P2;SDS_P1;SDS_P2;PMS_P1;PMS_P2;Temp;Humidity;BMP_temperature;BMP_pressure;BME280_temperature;BME280_humidity;BME280_pressure;Samples;Min_cycle;Max_cycle;Signal;HPM_P1;HPM_P2
2022/05/03 00:01:36;;;;;;;2.37;2.00;;;;;;;8.99;79.25;100552.84;5050943;28;20175;-72
2022/05/03 00:04:25;;;;;;;2.23;2.03;;;;;;;9.05;78.80;100553.56;5050423;28;20163;-73
2022/05/03 00:07:03;;;;;;;2.17;2.00;;;;;;;9.02;79.17;100554.97;5050754;28;20163;-72
2022/05/03 00:09:37;;;;;;;2.13;2.00;;;;;;;9.02;79.76;100559.63;5050675;28;20155;-72
2022/05/03 00:12:05;;;;;;;3.00;2.37;;;;;;;9.04;80.01;100554.66;5050686;28;20175;-73
2022/05/03 00:14:44;;;;;;;2.23;1.53;;;;;;;9.03;79.71;100555.78;5050744;28;20182;-72
2022/05/03 00:17:13;;;;;;;2.30;2.10;;;;;;;9.06;79.55;100547.00;5050524;28;20419;-73
2022/05/03 00:19:39;;;;;;;2.87;2.33;;;;;;;9.06;79.41;100552.44;5050691;28;20324;-74
2022/05/03 00:22:04;;;;;;;3.00;2.47;;;;;;;9.04;79.29;100541.84;5050661;28;20274;-72
2022/05/03 00:24:30;;;;;;;2.03;1.93;;;;;;;9.03;78.57;100544.88;5050681;28;20217;-72
2022/05/03 00:26:56;;;;;;;2.57;2.37;;;;;;;8.91;78.98;100557.06;5050544;28;20176;-72
2022/05/03 00:29:22;;;;;;;2.40;2.13;;;;;;;8.79;80.27;100545.00;5050570;28;20835;-72
2022/05/03 00:31:48;;;;;;;2.90;2.60;;;;;;;8.68;80.84;100552.53;5032878;28;20544;-72
2022/05/03 00:34:16;;;;;;;2.30;2.10;;;;;;;8.62;81.13;100548.25;5050543;28;20179;-73
2022/05/03 00:36:41;;;;;;;2.43;2.23;;;;;;;8.57;81.28;100546.44;5050408;28;20211;-72
2022/05/03 00:39:06;;;;;;;2.70;2.23;;;;;;;8.50;80.91;100545.16;5050384;28;20259;-73
2022/05/03 00:41:45;;;;;;;1.93;1.73;;;;;;;8.45;80.50;100546.06;5050497;28;20175;-72
2022/05/03 00:47:07;;;;;;;2.57;2.37;;;;;;;8.31;81.55;100554.13;5050431;28;20229;-72
2022/05/03 00:49:42;;;;;;;1.93;1.80;;;;;;;8.28;82.79;100551.97;5050358;28;20163;-72
2022/05/03 00:52:23;;;;;;;2.13;2.00;;;;;;;8.31;82.62;100558.75;5050287;28;20166;-72
2022/05/03 00:55:17;;;;;;;2.40;2.20;;;;;;;8.33;82.48;100556.53;5050431;28;20175;-72
2022/05/03 00:57:53;;;;;;;3.03;2.83;;;;;;;8.43;81.87;100555.63;5050109;28;20203;-72
2022/05/03 01:00:20;;;;;;;2.40;2.20;;;;;;;8.44;82.76;100557.25;5049925;28;20176;-72
2022/05/03 01:02:48;;;;;;;2.77;2.53;;;;;;;8.45;82.94;100556.13;5050302;28;20175;-74
2022/05/03 01:05:19;;;;;;;2.80;2.53;;;;;;;8.47;81.88;100562.91;5050203;28;20183;-71
2022/05/03 01:08:02;;;;;;;2.30;2.10;;;;;;;8.53;81.57;100556.28;5050107;28;20172;-72
2022/05/03 01:10:52;;;;;;;2.50;2.30;;;;;;;8.64;80.83;100563.19;5050214;28;20171;-72
2022/05/03 01:13:33;;;;;;;2.60;2.40;;;;;;;8.73;79.54;100565.25;5050209;28;20179;-72
2022/05/03 01:16:04;;;;;;;2.73;2.53;;;;;;;8.81;79.38;100562.66;5054182;28;20185;-72
2022/05/03 01:18:37;;;;;;;5.33;2.20;;;;;;;8.88;79.06;100568.53;5053669;28;20167;-72
2022/05/03 01:21:08;;;;;;;3.97;2.60;;;;;;;8.94;78.07;100552.91;5054189;28;20160;-73
2022/05/03 01:23:39;;;;;;;3.00;2.80;;;;;;;8.97;78.84;100552.34;5053749;28;20254;-74
2022/05/03 01:26:26;;;;;;;2.70;2.47;;;;;;;9.07;78.32;100556.78;5053722;28;20198;-73
2022/05/03 01:29:18;;;;;;;2.50;2.30;;;;;;;9.09;77.06;100552.66;5053453;28;20375;-73
2022/05/03 01:31:45;;;;;;;2.10;2.00;;;;;;;8.95;74.55;100543.63;5054073;28;20713;-72
2022/05/03 01:34:12;;;;;;;2.10;1.90;;;;;;;8.96;72.91;100542.53;5053658;28;20639;-73
2022/05/03 01:37:00;;;;;;;1.87;1.77;;;;;;;9.16;73.07;100549.56;5053489;28;20264;-73
2022/05/03 01:39:47;;;;;;;1.40;1.30;;;;;;;9.27;72.81;100552.94;5040032;28;20206;-72
2022/05/03 01:42:24;;;;;;;3.50;1.27;;;;;;;9.33;71.63;100557.97;5053393;28;20193;-73
2022/05/03 01:45:10;;;;;;;1.00;1.00;;;;;;;9.10;67.93;100557.00;5053530;28;20170;-73
2022/05/03 01:47:56;;;;;;;1.50;0.93;;;;;;;9.16;67.32;100555.00;5053233;28;20198;-74
2022/05/03 01:50:41;;;;;;;0.80;0.80;;;;;;;9.34;67.78;100551.41;5053324;28;20611;-73
2022/05/03 01:53:29;;;;;;;1.07;0.80;;;;;;;9.22;66.65;100546.44;5053240;28;20168;-72
2022/05/03 01:56:18;;;;;;;1.00;0.73;;;;;;;9.28;67.54;100554.53;5053203;28;20175;-72
2022/05/03 01:58:46;;;;;;;0.80;0.77;;;;;;;9.27;67.72;100553.72;5052959;28;20175;-73
2022/05/03 02:01:17;;;;;;;2.83;1.43;;;;;;;9.25;67.04;100559.47;5052840;28;20532;-73
2022/05/03 02:04:04;;;;;;;1.20;1.10;;;;;;;9.27;66.47;100559.19;5053201;28;20160;-72
2022/05/03 02:06:44;;;;;;;0.80;0.80;;;;;;;9.20;67.08;100562.28;5053058;28;20170;-72
2022/05/03 02:09:10;;;;;;;1.13;0.90;;;;;;;9.15;67.64;100559.66;5052811;28;20178;-73
2022/05/03 02:12:01;;;;;;;0.77;0.77;;;;;;;9.10;67.32;100551.56;5052937;28;20526;-73
2022/05/03 02:14:44;;;;;;;0.77;0.77;;;;;;;9.02;66.15;100554.16;5052722;28;20163;-72
2022/05/03 02:17:28;;;;;;;2.37;0.73;;;;;;;8.91;67.01;100551.59;5052632;28;20252;-73
2022/05/03 02:19:58;;;;;;;0.80;0.80;;;;;;;8.92;68.55;100555.13;5052895;28;20381;-72
2022/05/03 02:23:05;;;;;;;1.27;0.77;;;;;;;8.93;69.15;100560.28;5052745;28;20171;-73
2022/05/03 02:25:46;;;;;;;0.60;0.60;;;;;;;8.90;68.13;100539.09;5051365;28;20190;-75
2022/05/03 02:28:22;;;;;;;2.10;0.70;;;;;;;8.88;68.02;100535.03;5052387;28;20163;-76
2022/05/03 02:30:50;;;;;;;0.80;0.80;;;;;;;8.73;67.73;100538.81;5053208;28;20152;-74
2022/05/03 02:33:42;;;;;;;1.37;0.70;;;;;;;8.71;67.25;100542.97;5052453;28;20178;-74
2022/05/03 02:36:14;;;;;;;1.00;0.90;;;;;;;8.63;68.83;100534.34;5052383;28;20195;-73
2022/05/03 02:38:50;;;;;;;0.80;0.80;;;;;;;8.55;69.22;100536.94;5052132;28;20582;-73
2022/05/03 02:41:19;;;;;;;0.70;0.70;;;;;;;8.30;70.02;100544.34;5052246;28;20225;-73
2022/05/03 02:43:46;;;;;;;0.77;0.77;;;;;;;8.04;71.63;100540.31;5052154;28;20547;-73
2022/05/03 02:46:44;;;;;;;1.07;0.80;;;;;;;7.69;73.42;100538.88;5052183;28;20178;-72
2022/05/03 02:49:43;;;;;;;2.00;0.90;;;;;;;7.50;74.48;100540.69;5051950;28;20175;-71
2022/05/03 02:52:17;;;;;;;0.87;0.70;;;;;;;7.47;73.91;100536.66;5052133;28;20236;-73
2022/05/03 02:55:06;;;;;;;1.40;0.90;;;;;;;7.47;74.58;100536.66;5052091;28;20171;-73
2022/05/03 02:57:52;;;;;;;0.90;0.70;;;;;;;7.55;75.19;100527.88;5051836;28;20187;-72
2022/05/03 03:03:18;;;;;;;0.87;0.87;;;;;;;7.63;76.15;100540.00;5052013;28;20704;-72
2022/05/03 03:05:53;;;;;;;0.90;0.80;;;;;;;7.61;75.89;100543.00;5051976;28;20171;-73
2022/05/03 03:08:21;;;;;;;0.70;0.70;;;;;;;7.70;76.73;100545.91;5051475;28;20171;-75
2022/05/03 03:11:01;;;;;;;0.80;0.80;;;;;;;7.74;76.46;100536.88;5051772;28;20181;-73
2022/05/03 03:13:45;;;;;;;0.70;0.63;;;;;;;7.78;76.55;100539.81;5051617;28;20578;-73
2022/05/03 03:16:13;;;;;;;0.60;0.60;;;;;;;7.87;75.89;100540.81;5051246;28;20198;-73
2022/05/03 03:18:43;;;;;;;0.80;0.80;;;;;;;7.89;75.74;100535.09;5050855;28;20558;-72
2022/05/03 03:21:12;;;;;;;0.63;0.63;;;;;;;7.90;74.16;100536.69;5051094;28;20168;-73
2022/05/03 03:23:40;;;;;;;1.03;0.90;;;;;;;7.92;74.66;100537.22;5051366;28;20521;-72
2022/05/03 03:26:06;;;;;;;1.00;0.80;;;;;;;7.89;74.77;100532.34;5053198;28;20179;-72
2022/05/03 03:28:33;;;;;;;1.10;1.10;;;;;;;7.85;75.09;100532.13;5053199;28;20168;-72
2022/05/03 03:31:02;;;;;;;0.90;0.90;;;;;;;7.82;75.21;100532.72;5051153;28;20175;-73
2022/05/03 03:33:32;;;;;;;0.90;0.83;;;;;;;7.75;76.35;100538.50;5051160;28;20244;-72
2022/05/03 03:36:01;;;;;;;0.90;0.80;;;;;;;7.69;76.09;100536.16;5051065;28;20175;-72
2022/05/03 03:38:41;;;;;;;1.20;0.90;;;;;;;7.66;76.66;100528.53;5051065;28;20190;-72
2022/05/03 03:41:07;;;;;;;2.10;0.80;;;;;;;7.59;76.57;100531.63;5033470;28;20170;-73
2022/05/03 03:43:32;;;;;;;0.90;0.90;;;;;;;7.60;75.86;100533.25;5050920;28;20189;-73
2022/05/03 03:45:58;;;;;;;1.10;0.90;;;;;;;7.59;76.98;100531.63;5051161;28;20182;-72
2022/05/03 03:48:23;;;;;;;1.40;0.80;;;;;;;7.53;76.31;100527.34;5051434;28;20183;-74
2022/05/03 03:50:50;;;;;;;2.37;0.80;;;;;;;7.57;77.35;100524.88;5051105;28;20225;-72
2022/05/03 03:53:16;;;;;;;0.70;0.70;;;;;;;7.48;75.77;100532.81;5051053;28;20206;-71
2022/05/03 03:55:42;;;;;;;0.93;0.93;;;;;;;7.42;75.61;100536.72;5051022;28;20202;-72
2022/05/03 03:58:08;;;;;;;0.67;0.60;;;;;;;7.29;76.29;100529.25;5050735;28;20252;-73
2022/05/03 04:00:33;;;;;;;0.97;0.83;;;;;;;7.18;77.09;100527.72;5050776;28;20614;-71
2022/05/03 04:03:00;;;;;;;1.13;0.80;;;;;;;7.09;77.65;100525.63;5050980;28;20199;-72
2022/05/03 04:05:27;;;;;;;1.07;0.97;;;;;;;7.03;78.61;100525.94;5050807;28;20186;-72
2022/05/03 04:07:52;;;;;;;1.17;1.00;;;;;;;7.03;79.45;100524.03;5050613;28;20183;-73
2022/05/03 04:10:19;;;;;;;0.87;0.80;;;;;;;7.01;79.74;100537.09;5050743;28;20179;-72
2022/05/03 04:12:44;;;;;;;0.87;0.70;;;;;;;6.99;79.12;100523.00;5050698;28;20524;-72
2022/05/03 04:15:10;;;;;;;0.80;0.80;;;;;;;6.99;79.69;100536.56;5050762;28;20214;-72
2022/05/03 04:17:36;;;;;;;0.67;0.67;;;;;;;7.03;80.37;100531.38;5047872;28;20242;-74
2022/05/03 04:20:02;;;;;;;1.17;0.70;;;;;;;7.08;80.43;100531.31;5048542;28;20238;-72
2022/05/03 04:22:29;;;;;;;0.60;0.60;;;;;;;7.10;80.24;100527.25;5050662;28;20179;-72
2022/05/03 04:24:56;;;;;;;0.90;0.80;;;;;;;7.13;79.57;100529.38;5050471;28;20185;-72
2022/05/03 04:27:21;;;;;;;0.50;0.50;;;;;;;7.20;79.90;100536.38;5050333;28;20175;-71
2022/05/03 04:29:48;;;;;;;0.80;0.80;;;;;;;7.28;79.87;100533.84;5050523;28;20175;-72
2022/05/03 04:32:13;;;;;;;1.00;0.90;;;;;;;7.27;79.08;100534.16;5050425;28;20178;-72
2022/05/03 04:34:39;;;;;;;0.70;0.70;;;;;;;7.31;79.70;100543.34;5050593;28;20171;-72
2022/05/03 04:37:04;;;;;;;1.00;0.80;;;;;;;7.24;80.67;100540.16;5050444;28;20206;-71
2022/05/03 04:39:29;;;;;;;0.90;0.90;;;;;;;7.18;80.86;100547.53;5050228;28;20270;-73
2022/05/03 04:41:55;;;;;;;1.40;1.10;;;;;;;7.20;80.68;100539.91;5050370;28;20195;-72
2022/05/03 04:44:20;;;;;;;1.80;1.43;;;;;;;7.30;80.30;100541.72;5050463;28;20222;-73
2022/05/03 04:46:45;;;;;;;1.40;1.30;;;;;;;7.35;79.91;100541.66;5050273;28;20208;-71
2022/05/03 04:49:11;;;;;;;1.20;1.10;;;;;;;7.40;79.88;100547.06;5033817;28;20274;-71
2022/05/03 04:51:36;;;;;;;2.53;1.37;;;;;;;7.46;79.37;100548.63;5054317;28;20206;-73
2022/05/03 04:54:01;;;;;;;1.77;1.67;;;;;;;7.53;78.68;100554.53;5054222;28;20179;-73
2022/05/03 04:56:26;;;;;;;2.93;1.37;;;;;;;7.65;78.45;100549.50;5054074;28;20230;-72
2022/05/03 04:58:56;;;;;;;1.67;1.57;;;;;;;7.73;78.42;100561.66;5054034;28;20228;-72
2022/05/03 05:01:23;;;;;;;3.67;1.60;;;;;;;7.71;77.72;100561.13;5053975;28;20204;-72
2022/05/03 05:03:48;;;;;;;3.13;1.30;;;;;;;7.65;78.66;100554.94;5054027;28;20585;-72
2022/05/03 05:06:14;;;;;;;1.43;1.33;;;;;;;7.59;78.44;100563.44;5053951;28;20266;-72
2022/05/03 05:08:42;;;;;;;1.33;1.10;;;;;;;7.57;78.97;100560.22;5053756;28;20182;-73
2022/05/03 05:11:08;;;;;;;1.60;1.50;;;;;;;7.63;79.44;100559.03;5053908;28;20653;-73
2022/05/03 05:13:34;;;;;;;2.43;1.40;;;;;;;7.66;79.36;100569.34;5053782;28;20207;-72
2022/05/03 05:16:00;;;;;;;3.30;1.80;;;;;;;7.67;77.86;100568.25;5053725;28;20179;-72
2022/05/03 05:18:27;;;;;;;2.13;1.93;;;;;;;7.76;75.98;100561.88;5053662;28;20304;-72
2022/05/03 05:20:53;;;;;;;1.70;1.60;;;;;;;7.84;75.72;100563.16;5053855;28;20182;-73
2022/05/03 05:23:18;;;;;;;1.77;1.67;;;;;;;7.86;75.31;100571.03;5053733;28;20179;-73
2022/05/03 05:25:44;;;;;;;1.97;1.70;;;;;;;7.92;74.70;100578.03;5053603;28;20274;-72
2022/05/03 05:28:10;;;;;;;1.83;1.63;;;;;;;7.94;75.65;100581.25;5053335;28;20654;-73
2022/05/03 05:30:35;;;;;;;1.93;1.83;;;;;;;8.05;77.22;100580.84;5035670;28;20171;-77
2022/05/03 05:33:01;;;;;;;1.93;1.73;;;;;;;8.11;76.01;100581.59;5053435;28;20202;-73
2022/05/03 05:35:26;;;;;;;1.90;1.80;;;;;;;8.14;74.96;100591.09;5053584;28;20172;-73
2022/05/03 05:37:51;;;;;;;2.00;1.80;;;;;;;8.19;75.32;100585.59;5053184;28;20207;-72
2022/05/03 05:40:17;;;;;;;1.93;1.83;;;;;;;8.31;75.68;100583.25;5053666;28;20175;-72
2022/05/03 05:42:42;;;;;;;2.27;2.07;;;;;;;8.34;74.96;100588.94;5053336;28;20179;-72
2022/05/03 05:45:08;;;;;;;2.17;1.90;;;;;;;8.43;74.58;100588.28;5053284;28;20641;-72
2022/05/03 05:47:33;;;;;;;2.77;1.90;;;;;;;8.48;74.18;100590.94;5053365;28;20187;-71
2022/05/03 05:49:59;;;;;;;1.93;1.83;;;;;;;8.49;73.67;100590.63;5053104;28;20220;-72
2022/05/03 05:55:08;;;;;;;2.73;2.53;;;;;;;8.46;72.87;100599.41;5053188;28;20170;-75
2022/05/03 05:57:34;;;;;;;2.63;2.30;;;;;;;8.58;73.45;100602.50;5052887;28;20210;-73
2022/05/03 06:00:00;;;;;;;2.27;1.97;;;;;;;8.72;72.89;100601.78;5051508;28;20183;-72
2022/05/03 06:02:25;;;;;;;1.97;1.80;;;;;;;8.80;71.50;100595.63;5052432;28;20410;-72
2022/05/03 06:04:51;;;;;;;3.23;2.53;;;;;;;8.84;71.11;100602.13;5052615;28;20258;-72
2022/05/03 06:07:16;;;;;;;1.87;1.60;;;;;;;8.89;70.62;100596.59;5052344;28;20530;-72
2022/05/03 06:09:43;;;;;;;3.63;2.03;;;;;;;8.93;70.54;100600.34;5052351;28;20186;-72
2022/05/03 06:12:09;;;;;;;2.03;1.87;;;;;;;8.99;70.00;100601.09;5052240;28;20175;-72
2022/05/03 06:14:34;;;;;;;2.63;2.27;;;;;;;8.85;70.93;100598.31;5052198;28;20187;-72
2022/05/03 06:16:59;;;;;;;4.40;1.97;;;;;;;8.75;71.07;100598.44;5034268;28;20228;-72
2022/05/03 06:19:25;;;;;;;3.77;1.90;;;;;;;8.77;71.02;100607.13;5052174;28;20175;-71
2022/05/03 06:21:51;;;;;;;2.03;1.87;;;;;;;8.75;71.20;100603.91;5052293;28;20182;-72
2022/05/03 06:24:16;;;;;;;1.80;1.70;;;;;;;8.71;70.97;100609.13;5051968;28;20171;-71
2022/05/03 06:26:42;;;;;;;1.90;1.80;;;;;;;8.73;72.03;100609.66;5051905;28;20265;-72
2022/05/03 06:29:09;;;;;;;1.87;1.77;;;;;;;8.84;71.30;100621.22;5051951;28;20222;-72
2022/05/03 06:31:43;;;;;;;2.00;1.73;;;;;;;8.87;70.69;100617.88;5052009;28;20627;-72
2022/05/03 06:34:09;;;;;;;2.30;2.10;;;;;;;8.88;70.53;100620.31;5052143;28;20326;-71
2022/05/03 06:36:35;;;;;;;3.00;2.13;;;;;;;8.93;70.21;100616.69;5052067;28;20368;-71
2022/05/03 06:39:05;;;;;;;2.13;2.03;;;;;;;9.00;70.36;100624.50;5051743;28;20486;-72
2022/05/03 06:41:31;;;;;;;1.90;1.67;;;;;;;9.01;70.20;100620.69;5051768;28;20193;-72
2022/05/03 06:43:58;;;;;;;2.10;2.00;;;;;;;9.06;71.29;100626.84;5051375;28;20836;-72
2022/05/03 06:46:26;;;;;;;2.27;2.07;;;;;;;9.12;71.23;100628.41;5051136;28;20183;-72
2022/05/03 06:48:52;;;;;;;2.07;1.87;;;;;;;9.18;69.22;100620.94;5051566;28;20210;-73
2022/05/03 06:51:17;;;;;;;2.47;2.27;;;;;;;9.29;69.74;100624.31;5051704;28;20596;-75
2022/05/03 06:53:43;;;;;;;2.13;1.97;;;;;;;9.40;69.01;100629.31;5051702;28;20179;-71
2022/05/03 06:56:08;;;;;;;2.33;1.90;;;;;;;9.37;68.94;100621.69;5051317;28;20185;-72
2022/05/03 06:58:34;;;;;;;2.90;2.20;;;;;;;9.53;69.08;100624.97;5050201;28;20188;-72
2022/05/03 07:01:13;;;;;;;2.07;1.83;;;;;;;9.60;69.22;100627.31;5051183;28;20179;-73
2022/05/03 07:03:39;;;;;;;2.57;1.93;;;;;;;9.66;68.52;100623.38;5051435;28;20270;-72
2022/05/03 07:06:05;;;;;;;2.20;2.07;;;;;;;9.69;66.74;100628.22;5051180;28;20767;-73
2022/05/03 07:08:31;;;;;;;2.07;1.73;;;;;;;9.80;66.77;100638.66;5033133;28;20274;-72
2022/05/03 07:10:57;;;;;;;2.03;1.70;;;;;;;9.91;66.72;100633.03;5051132;28;20178;-72
2022/05/03 07:13:26;;;;;;;2.40;1.90;;;;;;;9.97;66.37;100634.53;5050910;28;20179;-73
2022/05/03 07:15:52;;;;;;;5.40;1.93;;;;;;;9.99;66.94;100637.78;5051218;28;20553;-73
2022/05/03 07:23:45;;;;;;;2.60;1.67;;;;;;;10.39;64.02;100636.16;5051325;28;20689;-72
2022/05/03 07:26:11;;;;;;;1.90;1.80;;;;;;;10.50;63.76;100643.03;5050986;28;20171;-72
2022/05/03 07:28:37;;;;;;;2.07;1.97;;;;;;;10.63;63.00;100653.13;5050808;28;20210;-73
2022/05/03 07:31:02;;;;;;;1.90;1.73;;;;;;;10.74;61.37;100648.25;5050742;28;20198;-73
2022/05/03 07:33:27;;;;;;;0.97;0.67;;;;;;;10.78;52.38;100645.72;5050906;28;20194;-72
2022/05/03 07:35:53;;;;;;;0.63;0.63;;;;;;;10.81;50.38;100653.31;5050902;28;20176;-72
2022/05/03 07:38:18;;;;;;;1.17;0.40;;;;;;;10.84;47.91;100649.94;5050391;28;20257;-72
2022/05/03 07:40:43;;;;;;;0.57;0.57;;;;;;;11.01;49.13;100650.94;5051172;28;20175;-72
2022/05/03 07:43:09;;;;;;;0.60;0.60;;;;;;;11.12;50.23;100651.47;5050540;28;20272;-73
2022/05/03 07:45:34;;;;;;;0.63;0.63;;;;;;;11.15;50.14;100650.88;5050558;28;20540;-72
2022/05/03 07:47:59;;;;;;;1.33;0.70;;;;;;;11.16;50.11;100647.03;5048340;28;20661;-73
2022/05/03 07:50:25;;;;;;;0.40;0.40;;;;;;;11.25;48.51;100652.53;5048051;28;20634;-76
2022/05/03 07:52:50;;;;;;;0.50;0.50;;;;;;;11.12;47.61;100654.22;5050811;28;20189;-76
2022/05/03 07:55:15;;;;;;;0.50;0.50;;;;;;;11.39;48.91;100644.28;5050829;28;20527;-75
2022/05/03 07:57:41;;;;;;;1.70;0.93;;;;;;;11.51;49.38;100648.06;5032713;28;20223;-72
2022/05/03 08:00:08;;;;;;;1.53;0.80;;;;;;;11.33;49.02;100646.34;5032526;28;20313;-74
2022/05/03 08:02:33;;;;;;;0.70;0.70;;;;;;;11.34;49.68;100642.47;5050822;28;20224;-71
2022/05/03 08:04:59;;;;;;;1.00;0.90;;;;;;;11.52;50.26;100651.59;5050874;28;20183;-74
2022/05/03 08:07:24;;;;;;;0.97;0.87;;;;;;;11.46;49.93;100652.84;5050441;28;20171;-73
2022/05/03 08:09:49;;;;;;;1.57;1.10;;;;;;;11.56;50.97;100652.59;5050685;28;20171;-73
2022/05/03 08:12:16;;;;;;;1.97;1.17;;;;;;;11.62;50.59;100656.81;5050170;28;20172;-73
2022/05/03 08:14:42;;;;;;;1.30;1.20;;;;;;;11.63;50.75;100652.97;5050387;28;20183;-72
2022/05/03 08:17:08;;;;;;;1.20;1.10;;;;;;;11.50;51.09;100656.59;5050989;28;20202;-72
2022/05/03 08:19:34;;;;;;;0.90;0.90;;;;;;;11.45;50.66;100656.72;5050627;28;20649;-72
2022/05/03 08:21:59;;;;;;;2.43;1.40;;;;;;;11.52;51.00;100651.59;5050905;28;20171;-73
2022/05/03 08:24:25;;;;;;;1.10;1.00;;;;;;;11.75;51.34;100655.94;5049823;28;20179;-72
2022/05/03 08:26:52;;;;;;;1.67;1.20;;;;;;;11.82;50.79;100648.09;5050518;28;20186;-75
2022/05/03 08:29:17;;;;;;;6.73;1.30;;;;;;;12.10;51.26;100656.91;5050244;28;20266;-73
2022/05/03 08:31:42;;;;;;;1.17;1.10;;;;;;;11.98;50.35;100658.63;5050467;28;20262;-73
2022/05/03 08:34:09;;;;;;;1.30;1.10;;;;;;;11.86;50.62;100657.31;5050463;28;20171;-72
2022/05/03 08:36:34;;;;;;;1.93;1.00;;;;;;;12.09;51.06;100660.78;5050412;28;20252;-74
2022/05/03 08:42:02;;;;;;;2.40;1.27;;;;;;;12.32;50.88;100663.47;5050627;28;20177;-73
2022/05/03 08:44:28;;;;;;;1.10;1.00;;;;;;;12.40;51.31;100660.72;5050541;28;20167;-73
2022/05/03 08:46:59;;;;;;;1.43;1.33;;;;;;;12.56;50.81;100663.81;5050375;28;20186;-73
2022/05/03 08:49:29;;;;;;;1.67;1.20;;;;;;;12.78;51.72;100660.97;5032509;28;20186;-75
2022/05/03 08:51:55;;;;;;;1.40;1.30;;;;;;;12.79;50.33;100661.78;5050593;28;20206;-73
2022/05/03 08:54:24;;;;;;;1.30;1.20;;;;;;;12.67;49.78;100662.41;5050291;28;20178;-73
2022/05/03 08:56:50;;;;;;;1.40;1.30;;;;;;;12.77;50.46;100669.53;5050195;28;20195;-71
2022/05/03 08:59:15;;;;;;;1.47;1.37;;;;;;;12.67;51.04;100658.84;5049972;28;20179;-67
2022/05/03 09:01:40;;;;;;;2.00;1.50;;;;;;;12.87;51.92;100665.66;5049718;28;20695;-72
2022/05/03 09:04:09;;;;;;;1.50;1.40;;;;;;;13.01;52.92;100667.09;5049645;28;20179;-72
2022/05/03 09:06:45;;;;;;;2.43;1.60;;;;;;;13.10;51.96;100667.13;5047030;28;20195;-72
2022/05/03 09:09:12;;;;;;;4.83;1.97;;;;;;;13.26;52.31;100672.97;5049925;28;20257;-73
2022/05/03 09:11:46;;;;;;;5.03;4.20;;;;;;;13.21;51.50;100670.38;5050114;28;20175;-72
2022/05/03 09:14:47;;;;;;;2.17;1.97;;;;;;;13.15;51.26;100658.72;5050038;28;20186;-72
2022/05/03 09:17:13;;;;;;;2.20;2.00;;;;;;;13.02;51.98;100668.75;4949411;29;20213;-72
2022/05/03 09:19:38;;;;;;;3.03;1.77;;;;;;;13.17;50.24;100661.97;5028325;28;20550;-72
2022/05/03 09:24:54;;;;;;;2.40;2.20;;;;;;;13.57;51.47;100661.78;5049567;28;20185;-72
2022/05/03 09:27:21;;;;;;;2.00;1.80;;;;;;;13.52;50.39;100657.28;5049244;28;20214;-72
2022/05/03 09:30:09;;;;;;;2.10;1.90;;;;;;;13.58;50.98;100644.97;5036622;28;20219;-74
2022/05/03 09:32:37;;;;;;;2.73;1.87;;;;;;;13.82;50.96;100658.16;5033759;28;20187;-72
2022/05/03 09:35:04;;;;;;;1.87;1.77;;;;;;;13.77;50.35;100646.56;5043026;28;20186;-72
2022/05/03 09:37:42;;;;;;;2.50;2.30;;;;;;;13.88;52.10;100654.09;5051708;28;20668;-72
2022/05/03 09:40:09;;;;;;;2.70;2.50;;;;;;;13.73;50.57;100654.63;5049426;28;20187;-73
2022/05/03 09:42:36;;;;;;;2.60;2.40;;;;;;;13.83;50.51;100651.53;5052810;28;20622;-72
2022/05/03 09:45:03;;;;;;;1.93;1.83;;;;;;;13.97;50.75;100654.09;5052151;28;20210;-72
2022/05/03 09:47:34;;;;;;;2.97;2.10;;;;;;;14.04;50.89;100642.59;5052627;28;20632;-72
2022/05/03 09:50:00;;;;;;;2.87;2.63;;;;;;;14.24;51.77;100642.66;5052714;28;20167;-72
2022/05/03 09:52:28;;;;;;;2.13;1.93;;;;;;;14.19;48.93;100642.03;5052802;28;20199;-73
2022/05/03 09:54:59;;;;;;;2.57;2.37;;;;;;;14.02;49.39;100640.16;5052787;28;20283;-72
2022/05/03 09:57:27;;;;;;;2.43;2.23;;;;;;;13.84;48.54;100633.94;5052298;28;20299;-73
2022/05/03 09:59:54;;;;;;;2.60;2.40;;;;;;;13.94;49.56;100641.00;5052609;28;20232;-72
2022/05/03 10:02:24;;;;;;;2.70;2.50;;;;;;;14.09;51.68;100634.97;5052700;28;20251;-72
2022/05/03 10:04:52;;;;;;;2.93;2.40;;;;;;;14.28;50.17;100631.78;5052771;28;20266;-72
2022/05/03 10:07:19;;;;;;;2.97;2.60;;;;;;;14.10;49.89;100641.25;5052221;28;20175;-72
2022/05/03 10:09:45;;;;;;;2.87;2.67;;;;;;;14.27;49.64;100633.75;5052429;28;20181;-72
2022/05/03 10:12:12;;;;;;;2.67;2.47;;;;;;;14.47;49.84;100631.41;5052387;28;20178;-72
2022/05/03 10:14:42;;;;;;;3.90;2.67;;;;;;;14.61;50.14;100623.72;5052519;28;20297;-71
2022/05/03 10:22:46;;;;;;;3.00;2.70;;;;;;;14.86;50.75;100628.22;5052455;28;20275;-72
2022/05/03 10:25:11;;;;;;;4.00;3.67;;;;;;;14.94;49.53;100628.50;5052036;28;20258;-72
2022/05/03 10:27:57;;;;;;;2.83;2.63;;;;;;;15.04;49.64;100628.06;5051920;28;20176;-72
2022/05/03 10:30:24;;;;;;;3.57;2.87;;;;;;;14.82;49.57;100618.22;5052630;28;20163;-72
2022/05/03 10:33:20;;;;;;;4.23;3.40;;;;;;;14.91;50.74;100629.16;5052222;28;20195;-72
2022/05/03 10:35:46;;;;;;;3.57;2.80;;;;;;;14.81;50.41;100619.38;5052518;28;20658;-72
2022/05/03 10:38:12;;;;;;;3.70;3.40;;;;;;;14.73;50.03;100611.97;5052058;28;20209;-72
2022/05/03 10:40:42;;;;;;;3.57;3.27;;;;;;;14.66;50.32;100614.47;5052436;28;20172;-72
2022/05/03 10:43:13;;;;;;;3.33;3.07;;;;;;;15.05;52.36;100624.19;5052071;28;20281;-72
2022/05/03 10:45:50;;;;;;;3.90;3.13;;;;;;;15.35;50.58;100624.88;5051563;28;20175;-71
2022/05/03 10:48:29;;;;;;;2.87;2.67;;;;;;;15.48;51.30;100613.56;5051116;28;20181;-66
2022/05/03 10:51:03;;;;;;;4.47;3.50;;;;;;;15.28;49.51;100608.09;5051786;28;20183;-72
2022/05/03 10:53:40;;;;;;;4.00;3.00;;;;;;;15.42;49.99;100609.41;5051663;28;20461;-72
2022/05/03 10:56:12;;;;;;;3.60;3.30;;;;;;;15.73;52.18;100603.41;5051692;28;20258;-72
2022/05/03 10:59:00;;;;;;;3.87;3.00;;;;;;;15.70;49.93;100600.56;5048006;28;20183;-72
2022/05/03 11:01:25;;;;;;;3.03;2.73;;;;;;;15.41;50.04;100599.53;5050569;28;20179;-72
2022/05/03 11:04:00;;;;;;;2.30;2.10;;;;;;;15.34;49.98;100593.81;5051823;28;20664;-72
2022/05/03 11:06:25;;;;;;;3.10;2.70;;;;;;;15.41;49.93;100594.03;5051788;28;20177;-72
2022/05/03 11:11:43;;;;;;;3.10;2.80;;;;;;;15.39;50.89;100604.59;5052066;28;20221;-72
2022/05/03 11:14:15;;;;;;;2.87;2.67;;;;;;;15.67;50.52;100593.78;5033836;28;20179;-72
2022/05/03 11:17:02;;;;;;;3.07;2.67;;;;;;;15.62;48.48;100588.50;5051645;28;20607;-73
2022/05/03 11:19:29;;;;;;;2.70;2.50;;;;;;;16.03;49.50;100584.72;5037855;28;20195;-72
2022/05/03 11:21:56;;;;;;;3.00;2.77;;;;;;;15.72;49.01;100581.72;5051841;28;20266;-72
2022/05/03 11:24:30;;;;;;;3.40;2.93;;;;;;;15.95;49.11;100580.16;5051588;28;20171;-72
2022/05/03 11:27:02;;;;;;;3.87;2.93;;;;;;;15.73;49.91;100583.34;5051693;28;20186;-72
2022/05/03 11:29:41;;;;;;;6.13;2.90;;;;;;;16.42;50.83;100582.41;5051500;28;20191;-71
2022/05/03 11:32:07;;;;;;;3.13;2.80;;;;;;;15.95;48.07;100574.63;5051724;28;20163;-72
2022/05/03 11:34:33;;;;;;;2.00;1.80;;;;;;;16.53;49.80;100583.53;5051423;28;20266;-72
2022/05/03 11:37:00;;;;;;;2.90;2.70;;;;;;;16.30;47.26;100576.91;5050980;28;20199;-72
2022/05/03 11:39:25;;;;;;;3.23;2.40;;;;;;;16.62;47.61;100572.34;5048970;28;20179;-72
2022/05/03 11:41:51;;;;;;;2.70;2.30;;;;;;;16.65;47.98;100574.44;5050970;28;20598;-72
2022/05/03 11:44:17;;;;;;;2.70;2.50;;;;;;;16.81;47.44;100577.31;5051240;28;20171;-72
2022/05/03 11:46:43;;;;;;;2.87;2.53;;;;;;;16.04;47.39;100564.28;5050820;28;20294;-72
2022/05/03 11:49:10;;;;;;;2.93;2.73;;;;;;;15.63;48.09;100553.50;5050780;28;20179;-72
2022/05/03 11:57:12;;;;;;;1.93;1.83;;;;;;;16.47;49.17;100562.84;5050699;28;20285;-72
2022/05/03 11:59:42;;;;;;;3.30;2.53;;;;;;;16.72;48.08;100560.06;5051004;28;20178;-70
2022/05/03 12:02:20;;;;;;;2.40;2.20;;;;;;;16.77;48.20;100559.81;5050146;28;20241;-72
2022/05/03 12:05:04;;;;;;;2.70;2.50;;;;;;;16.74;47.24;100560.53;5049381;28;20167;-73
2022/05/03 12:07:41;;;;;;;2.60;2.40;;;;;;;16.61;46.87;100554.19;5049853;28;20178;-72
2022/05/03 12:10:29;;;;;;;1.90;1.80;;;;;;;16.96;46.90;100560.00;5050371;28;20174;-73
2022/05/03 12:13:17;;;;;;;2.17;1.97;;;;;;;17.14;46.42;100564.03;5050126;28;20232;-72
2022/05/03 12:15:57;;;;;;;1.70;1.60;;;;;;;17.13;44.45;100556.91;5050405;28;20168;-72
2022/05/03 12:18:29;;;;;;;2.13;2.03;;;;;;;16.97;44.52;100549.75;5031834;28;20575;-71